Historyczne dane pomiarowe

Dodano dane terminowe – wersja testowa.

Dane z okresu 1951-2019

Wersja bazy: 1.34 [2019-03-16, lista zmian], aktualizacja planowana na 2019-04-15

Dane meteo z obszaru Polski uzyskane na podstawie danych udostępnionych przez Instytut Meteorologii i Gospodarki Wodnej – Państwowy Instytut Badawczy.

 

Wybierz Datę:    

       

TemperaturaWilgotnośćWiatrCiśnienieOpadyŚniegCzas trwania zjawisk
 Stacja t tx tn tng RH VA  wxwx mslp ppp RRR   cm mm wxwxwxwxwxwxwx
1999-08-14 11.6 17.7 5.8- 82.8- 3.0 0.7---- 0.0------------
1999-08-13 14.0 18.2 10.9- 83.5- 5.0 0.7---- 0.0------------
1999-08-12 14.6 18.1 12.8- 89.3- 6.7 1.0---- 0.0------------
1999-08-11 16.7 20.9 13.4- 90.3- 4.7 0.3---- 25.5------------
1999-08-10 20.6 28.4 16.1- 85.0- 5.0 1.0---- 8.5------------
1999-08-09 20.0 28.9 14.1- 86.5- 4.3 0.3---- 0.0------------
1999-08-08 20.2 25.7 16.3- 82.5- 4.0 0.3---- 0.0------------
1999-08-07 18.2 25.4 13.1- 84.8- 4.7 0.3---- 0.1------------
1999-08-06 18.1 25.5 13.2- 80.3- 5.7 1.0---- 6.6------------
1999-08-05 15.0 23.2 7.9- 82.0- 2.7 0.0---- 0.0------------
1999-08-04 14.8 22.4 8.1- 81.5- 2.7 0.3---- 0.0------------
1999-08-03 14.5 18.4 11.7- 83.5- 6.0 0.7---- 0.0------------
1999-08-02 13.3 17.4 10.2- 90.8- 7.3 1.0---- 3.3------------
1999-08-01 14.7 19.8 11.8- 85.3- 6.0 1.0---- 1.0------------
1999-07-31 15.0 20.7 8.1- 78.5- 4.3 1.0---- 1.5------------
1999-07-30 14.4 20.8 8.2- 80.0- 3.7 1.7---- 0.0------------
1999-07-29 15.7 20.9 12.1- 77.5- 4.3 2.0---- 0.0------------
1999-07-28 17.0 21.2 14.7- 85.8- 4.3 1.0---- 0.0------------
1999-07-27 17.7 21.3 16.0- 94.0- 8.0 2.0---- 13.4------------
1999-07-26 19.3 26.2 12.4- 82.3- 4.3 1.7---- 0.0------------
1999-07-25 15.8 22.8 10.2- 84.3- 4.3 0.7---- 0.0------------
1999-07-24 14.5 18.3 10.8- 89.0- 7.3 1.0---- 0.0------------
1999-07-23 13.2 16.3 11.1- 98.0- 8.0 1.7---- 21.5------------
1999-07-22 17.8 24.1 13.2- 82.5- 6.0 0.3---- 23.5------------
1999-07-21 19.5 27.7 12.1- 77.5- 3.3 0.7---- 0.0------------
1999-07-20 18.0 27.0 10.2- 79.3- 1.7 0.0---- 0.0------------
1999-07-19 16.8 24.9 8.3- 80.0- 2.3 0.0---- 0.0------------
1999-07-18 15.0 22.1 7.5- 79.0- 1.7 0.7---- 0.0------------
1999-07-17 13.7 20.9 7.4- 82.3- 4.7 0.7---- 0.0------------
1999-07-16 14.2 19.9 7.8- 82.8- 3.7 1.0---- 0.0------------
1999-07-15 15.8 19.7 13.1- 87.8- 5.7 1.7---- 0.0------------
1999-07-14 18.7 22.0 15.9- 94.3- 6.7 0.3---- 6.5------------
1999-07-13 18.6 22.2 16.1- 93.3- 6.0 0.7---- 5.0------------
1999-07-12 18.3 23.8 13.9- 93.3- 4.7 0.3---- 0.2------------
1999-07-11 18.0 20.3 16.2- 94.5- 6.0 0.7---- 10.5------------
1999-07-10 17.6 19.1 16.7- 93.3- 7.7 1.3---- 0.0------------
1999-07-09 18.8 22.7 16.3- 93.0- 6.3 2.0---- 0.0------------
1999-07-08 19.1 22.8 16.3- 94.0- 6.3 1.3---- 30.5------------
1999-07-07 19.5 27.3 15.3- 91.3- 5.7 1.7---- 56.1------------
1999-07-06 22.4 28.7 15.3- 77.5- 1.0 1.7---- 0.0------------
1999-07-05 21.6 28.8 14.3- 74.5- 0.3 0.3---- 0.0------------
1999-07-04 19.8 28.2 11.4- 77.8- 0.7 0.0---- 0.0------------
1999-07-03 17.7 23.1 12.1- 81.8- 3.3 0.0---- 0.0------------
1999-07-02 18.2 22.9 14.3- 84.3- 5.7 1.3---- 0.8------------
1999-07-01 17.4 23.9 10.3- 77.8- 2.7 0.7---- 0.0------------
1999-06-30 19.5 23.9 15.6- 75.0- 2.7 1.0---- 0.0------------
1999-06-29 17.7 23.8 11.8- 77.5- 4.3 1.3---- 0.0------------
1999-06-28 16.4 25.8 8.2- 79.3- 3.0 0.0---- 0.2------------
1999-06-27 16.1 24.8 7.3- 73.5- 0.3 0.7---- 0.0------------
1999-06-26 13.4 21.7 4.4- 81.5- 1.7 0.0---- 0.0------------
1999-06-25 12.1 17.7 7.1- 85.0- 1.7 1.0---- 0.0------------
1999-06-24 8.3 9.2 7.6- 95.8- 8.0 1.3---- 3.0------------
1999-06-23 7.8 8.9 6.6- 98.0- 8.0 2.7---- 8.5------------
1999-06-22 10.6 14.2 8.0- 96.5- 8.0 1.7---- 17.1------------
1999-06-21 16.9 22.8 14.0- 93.3- 6.3 0.7---- 15.3------------
1999-06-20 17.1 23.2 13.1- 90.5- 6.3 0.7---- 12.1------------
1999-06-19 16.7 21.6 14.1- 89.5- 5.3 2.0---- 0.0------------
1999-06-18 17.3 20.8 14.7- 92.3- 6.0 0.0---- 4.8------------
1999-06-17 17.5 21.2 14.4- 89.0- 6.0 0.7---- 9.5------------
1999-06-16 16.9 20.7 14.7- 89.5- 6.3 0.0---- 0.7------------
379.4 ms

 

Źródłem pochodzenia danych jest Instytut Meteorologii i Gospodarki Wodnej – Państwowy Instytut Badawczy. Dane Instytutu Meteorologii i Gospodarki Wodnej – Państwowego Instytutu Badawczego zostały przetworzone.

Dane źródłowe można odnaleźć na stronie https://dane.imgw.pl